createdAt,value
2018-02-03T00:01:42.892Z,95.00
2018-02-03T00:04:09.157Z,95.10
2018-02-03T00:06:36.148Z,95.20
2018-02-03T00:09:02.505Z,95.20
2018-02-03T00:11:28.729Z,95.20
2018-02-03T00:13:54.909Z,95.10
2018-02-03T00:16:21.192Z,95.20
2018-02-03T00:18:48.179Z,95.20
2018-02-03T00:21:14.447Z,95.20
2018-02-03T00:23:40.713Z,95.10
2018-02-03T00:26:07.683Z,95.30
2018-02-03T00:28:34.694Z,95.20
2018-02-03T00:31:00.915Z,95.10
2018-02-03T00:33:27.944Z,95.00
2018-02-03T00:35:54.936Z,95.10
2018-02-03T00:38:21.187Z,95.00
2018-02-03T00:40:47.420Z,95.10
2018-02-03T00:43:13.637Z,95.10
2018-02-03T00:45:39.932Z,95.00
2018-02-03T00:48:06.188Z,95.00
2018-02-03T00:50:33.192Z,95.40
2018-02-03T00:52:59.449Z,95.10
2018-02-03T00:55:25.702Z,95.10
2018-02-03T00:57:51.978Z,95.20
2018-02-03T01:00:18.956Z,94.90
2018-02-03T01:02:45.206Z,94.90
2018-02-03T01:05:11.494Z,94.90
2018-02-03T01:07:37.739Z,94.90
2018-02-03T01:10:04.001Z,95.00
2018-02-03T01:12:30.998Z,95.00
2018-02-03T01:14:57.282Z,95.00
2018-02-03T01:17:23.532Z,95.00
2018-02-03T01:19:49.807Z,95.00
2018-02-03T01:22:16.083Z,94.90
2018-02-03T01:24:43.119Z,95.10
2018-02-03T01:27:09.377Z,95.40
2018-02-03T01:29:35.632Z,95.20
2018-02-03T01:32:01.887Z,95.00
2018-02-03T01:34:28.091Z,95.00
2018-02-03T01:36:54.364Z,95.00
2018-02-03T01:39:20.612Z,95.00
2018-02-03T01:41:46.889Z,95.10
2018-02-03T01:44:13.159Z,95.20
2018-02-03T01:46:39.399Z,95.20
2018-02-03T01:49:05.637Z,95.30
2018-02-03T01:51:31.816Z,95.30
2018-02-03T01:53:58.091Z,95.20
2018-02-03T01:56:24.429Z,95.20
2018-02-03T01:58:50.675Z,95.00
2018-02-03T02:01:16.952Z,95.00
2018-02-03T02:03:43.183Z,95.00
2018-02-03T02:06:09.711Z,94.80
2018-02-03T02:08:35.951Z,94.80
2018-02-03T02:11:02.194Z,94.70
2018-02-03T02:13:28.453Z,94.60
2018-02-03T02:15:55.424Z,94.70
2018-02-03T02:18:22.009Z,94.70
2018-02-03T02:20:48.977Z,94.80
2018-02-03T02:23:15.726Z,94.80
2018-02-03T02:25:42.718Z,94.90
2018-02-03T02:28:08.942Z,94.90
2018-02-03T02:30:36.996Z,95.00
2018-02-03T02:33:03.906Z,94.90
2018-02-03T02:35:30.347Z,95.00
2018-02-03T02:37:56.571Z,94.70
2018-02-03T02:40:22.802Z,94.70
2018-02-03T02:42:49.059Z,94.80
2018-02-03T02:45:15.347Z,94.90
2018-02-03T02:47:41.607Z,94.80
2018-02-03T02:50:08.587Z,95.00
2018-02-03T02:52:35.821Z,94.90
2018-02-03T02:55:02.882Z,94.80
2018-02-03T02:57:29.219Z,94.80
2018-02-03T02:59:55.686Z,94.80
2018-02-03T03:02:22.696Z,94.50
2018-02-03T03:04:48.939Z,94.50
2018-02-03T03:07:15.207Z,94.40
2018-02-03T03:09:41.552Z,94.30
2018-02-03T03:12:07.822Z,94.30
2018-02-03T03:14:34.329Z,94.80
2018-02-03T03:17:00.590Z,94.50
2018-02-03T03:19:27.554Z,94.70
2018-02-03T03:21:55.345Z,94.70
2018-02-03T03:24:21.616Z,94.60
2018-02-03T03:26:47.836Z,94.60
2018-02-03T03:29:14.089Z,94.60
2018-02-03T03:31:40.315Z,94.50
2018-02-03T03:34:06.596Z,94.50
2018-02-03T03:36:32.819Z,94.50
2018-02-03T03:38:59.107Z,94.60
2018-02-03T03:41:26.116Z,94.70
2018-02-03T03:43:52.364Z,94.70
2018-02-03T03:46:18.620Z,94.70
2018-02-03T03:48:44.860Z,94.90
2018-02-03T03:51:11.856Z,95.00
2018-02-03T03:53:39.209Z,95.00
2018-02-03T03:56:06.281Z,95.50
2018-02-03T03:58:33.284Z,95.30
2018-02-03T04:00:59.515Z,95.30
2018-02-03T04:03:26.533Z,95.30
2018-02-03T04:05:53.601Z,95.40
2018-02-03T04:08:20.023Z,95.40
2018-02-03T04:10:47.109Z,95.50
2018-02-03T04:13:14.081Z,95.50
2018-02-03T04:15:40.307Z,95.50
2018-02-03T04:18:07.661Z,95.60
2018-02-03T04:20:34.645Z,95.70
2018-02-03T04:23:00.901Z,95.70
2018-02-03T04:25:27.688Z,95.80
2018-02-03T04:27:53.927Z,95.90
2018-02-03T04:30:21.662Z,96.30
2018-02-03T04:32:47.919Z,96.00
2018-02-03T04:35:14.156Z,96.10
2018-02-03T04:37:40.439Z,96.20
2018-02-03T04:40:06.685Z,96.20
2018-02-03T04:42:32.943Z,96.20
2018-02-03T04:44:59.939Z,96.30
2018-02-03T04:47:26.233Z,96.20
2018-02-03T04:49:53.267Z,96.50
2018-02-03T04:52:19.517Z,96.10
2018-02-03T04:54:45.743Z,96.10
2018-02-03T04:57:11.991Z,96.10
2018-02-03T04:59:38.224Z,96.00
2018-02-03T05:02:05.208Z,95.90
2018-02-03T05:04:31.657Z,95.80
2018-02-03T05:06:58.617Z,95.70
2018-02-03T05:09:25.606Z,95.70
2018-02-03T05:11:51.849Z,95.70
2018-02-03T05:14:18.086Z,95.70
2018-02-03T05:16:44.363Z,95.70
2018-02-03T05:19:11.398Z,95.80
2018-02-03T05:21:37.631Z,95.80
2018-02-03T05:24:03.879Z,95.80
2018-02-03T05:26:30.310Z,95.80
2018-02-03T05:28:56.539Z,95.90
2018-02-03T05:31:22.781Z,95.80
2018-02-03T05:33:49.053Z,95.80
2018-02-03T05:36:15.305Z,95.80
2018-02-03T05:38:41.596Z,95.80
2018-02-03T05:41:08.617Z,95.90
2018-02-03T05:43:34.922Z,95.90
2018-02-03T05:46:01.237Z,95.90
2018-02-03T05:48:28.256Z,96.00
2018-02-03T05:50:54.516Z,96.00
2018-02-03T05:53:20.791Z,96.90
2018-02-03T05:55:47.092Z,98.20
2018-02-03T05:58:13.345Z,97.70
2018-02-03T06:00:39.582Z,95.90
2018-02-03T06:03:05.840Z,95.40
2018-02-03T06:05:32.827Z,92.90
2018-02-03T06:07:59.085Z,92.90
2018-02-03T06:10:25.728Z,92.10
2018-02-03T06:12:51.981Z,91.00
2018-02-03T06:15:18.243Z,88.90
2018-02-03T06:17:44.490Z,88.40
2018-02-03T06:20:10.781Z,88.70
2018-02-03T06:22:37.012Z,88.50
2018-02-03T06:25:03.282Z,88.20
2018-02-03T06:27:29.515Z,88.80
2018-02-03T06:29:55.822Z,87.10
2018-02-03T06:32:23.187Z,87.80
2018-02-03T06:34:49.618Z,87.70
2018-02-03T06:37:16.617Z,89.40
2018-02-03T06:39:42.860Z,89.40
2018-02-03T06:42:09.106Z,90.10
2018-02-03T06:44:35.373Z,90.40
2018-02-03T06:47:01.642Z,90.70
2018-02-03T06:49:28.637Z,91.50
2018-02-03T06:51:54.884Z,91.30
2018-02-03T06:54:21.159Z,91.50
2018-02-03T06:56:47.430Z,92.10
2018-02-03T06:59:14.415Z,93.10
2018-02-03T07:01:40.679Z,93.10
2018-02-03T07:04:06.941Z,93.60
2018-02-03T07:06:33.217Z,94.10
2018-02-03T07:09:00.198Z,94.90
2018-02-03T07:11:26.459Z,94.80
2018-02-03T07:13:52.703Z,95.10
2018-02-03T07:16:18.972Z,95.10
2018-02-03T07:18:45.317Z,95.10
2018-02-03T07:21:11.564Z,95.20
2018-02-03T07:23:37.878Z,95.30
2018-02-03T07:26:04.141Z,95.20
2018-02-03T07:28:30.390Z,95.30
2018-02-03T07:30:56.713Z,95.40
2018-02-03T07:33:22.963Z,95.40
2018-02-03T07:35:49.255Z,95.50
2018-02-03T07:38:15.486Z,95.60
2018-02-03T07:40:41.751Z,95.70
2018-02-03T07:43:08.035Z,95.80
2018-02-03T07:45:34.274Z,95.90
2018-02-03T07:48:00.582Z,96.00
2018-02-03T07:50:26.862Z,95.90
2018-02-03T07:52:53.115Z,96.00
2018-02-03T07:55:19.397Z,95.90
2018-02-03T07:57:45.633Z,95.70
2018-02-03T08:00:11.915Z,95.60
2018-02-03T08:02:38.151Z,95.60
2018-02-03T08:05:04.407Z,95.60
2018-02-03T08:07:30.655Z,95.50
2018-02-03T08:09:57.672Z,95.20
2018-02-03T08:12:23.955Z,95.20
2018-02-03T08:14:50.964Z,94.80
2018-02-03T08:17:17.194Z,94.80
2018-02-03T08:19:43.462Z,94.60
2018-02-03T08:22:09.712Z,94.40
2018-02-03T08:24:36.010Z,93.90
2018-02-03T08:27:02.250Z,93.80
2018-02-03T08:29:28.467Z,93.80
2018-02-03T08:31:55.461Z,93.80
2018-02-03T08:34:21.702Z,93.80
2018-02-03T08:36:47.992Z,93.70
2018-02-03T08:39:14.216Z,93.60
2018-02-03T08:41:40.455Z,93.50
2018-02-03T08:44:06.741Z,93.50
2018-02-03T08:46:32.968Z,93.50
2018-02-03T08:48:59.980Z,93.40
2018-02-03T08:51:26.221Z,93.40
2018-02-03T08:53:53.204Z,96.30
2018-02-03T08:56:19.483Z,96.30
2018-02-03T08:58:45.730Z,94.90
2018-02-03T09:01:12.029Z,93.70
2018-02-03T09:03:38.273Z,93.10
2018-02-03T09:06:04.512Z,91.80
2018-02-03T09:08:30.775Z,92.80
2018-02-03T09:10:57.839Z,91.60
2018-02-03T09:13:24.827Z,91.70
2018-02-03T09:15:51.085Z,91.70
2018-02-03T09:18:17.362Z,91.70
2018-02-03T09:20:44.382Z,92.10
2018-02-03T09:23:10.661Z,92.10
2018-02-03T09:25:37.663Z,92.20
2018-02-03T09:28:03.929Z,92.20
2018-02-03T09:30:30.233Z,92.40
2018-02-03T09:32:56.509Z,92.50
2018-02-03T09:35:22.784Z,92.40
2018-02-03T09:37:49.044Z,92.20
2018-02-03T09:40:16.054Z,92.40
2018-02-03T09:42:42.289Z,92.40
2018-02-03T09:45:08.542Z,92.40
2018-02-03T09:47:34.820Z,92.60
2018-02-03T09:50:01.797Z,92.90
2018-02-03T09:52:28.034Z,92.90
2018-02-03T09:54:54.309Z,93.20
2018-02-03T09:57:20.578Z,93.30
2018-02-03T09:59:46.882Z,93.40
2018-02-03T10:02:13.133Z,93.50
2018-02-03T10:04:39.391Z,93.60
2018-02-03T10:07:05.642Z,93.40
2018-02-03T10:09:38.839Z,93.40
2018-02-03T10:12:05.100Z,93.50
2018-02-03T10:14:32.088Z,93.30
2018-02-03T10:16:58.367Z,93.30
2018-02-03T10:19:24.623Z,93.20
2018-02-03T10:21:50.927Z,93.40
2018-02-03T10:24:17.162Z,93.40
2018-02-03T10:26:43.420Z,93.50
2018-02-03T10:29:09.749Z,93.60
2018-02-03T10:31:35.989Z,93.70
2018-02-03T10:34:02.240Z,94.00
2018-02-03T10:36:28.501Z,94.50
2018-02-03T10:38:54.754Z,95.10
2018-02-03T10:41:20.974Z,95.60
2018-02-03T10:43:47.238Z,95.90
2018-02-03T10:46:13.492Z,96.30
2018-02-03T10:48:39.755Z,97.00
2018-02-03T10:51:06.016Z,97.50
2018-02-03T10:53:32.293Z,97.80
2018-02-03T10:55:58.556Z,98.30
2018-02-03T10:58:24.806Z,98.70
2018-02-03T11:00:51.820Z,98.30
2018-02-03T11:03:18.091Z,98.30
2018-02-03T11:05:45.097Z,98.00
2018-02-03T11:08:11.388Z,98.00
2018-02-03T11:10:38.368Z,98.20
2018-02-03T11:13:05.374Z,98.30
2018-02-03T11:15:31.678Z,98.30
2018-02-03T11:17:57.940Z,98.30
2018-02-03T11:20:24.961Z,98.20
2018-02-03T11:22:51.204Z,98.20
2018-02-03T11:25:17.442Z,98.20
2018-02-03T11:27:44.449Z,98.30
2018-02-03T11:30:10.718Z,98.30
2018-02-03T11:32:37.028Z,98.30
2018-02-03T11:35:03.274Z,98.30
2018-02-03T11:37:30.310Z,98.30
2018-02-03T11:39:56.595Z,98.30
2018-02-03T11:42:22.850Z,98.20
2018-02-03T11:44:49.129Z,98.00
2018-02-03T11:47:15.365Z,98.00
2018-02-03T11:49:41.588Z,98.00
2018-02-03T11:52:08.581Z,98.20
2018-02-03T11:54:34.833Z,98.20
2018-02-03T11:57:01.106Z,98.20
2018-02-03T11:59:27.360Z,98.20
2018-02-03T12:01:54.325Z,98.10
2018-02-03T12:04:21.360Z,97.80
2018-02-03T12:06:47.616Z,97.80
2018-02-03T12:09:13.858Z,97.90
2018-02-03T12:11:40.140Z,97.80
2018-02-03T12:14:06.405Z,97.80
2018-02-03T12:16:32.714Z,97.90
2018-02-03T12:18:58.982Z,98.00
2018-02-03T12:21:25.303Z,98.10
2018-02-03T12:23:51.560Z,98.10
2018-02-03T12:26:17.826Z,98.30
2018-02-03T12:28:44.107Z,98.30
2018-02-03T12:31:11.166Z,98.30
2018-02-03T12:33:38.215Z,98.20
2018-02-03T12:36:05.221Z,98.20
2018-02-03T12:38:31.532Z,98.20
2018-02-03T12:40:57.840Z,97.90
2018-02-03T12:43:24.139Z,97.70
2018-02-03T12:45:50.475Z,97.70
2018-02-03T12:48:16.781Z,97.50
2018-02-03T12:50:43.095Z,97.40
2018-02-03T12:53:09.382Z,97.50
2018-02-03T12:55:36.430Z,97.90
2018-02-03T12:58:03.511Z,98.10
2018-02-03T13:00:29.794Z,98.00
2018-02-03T13:02:56.073Z,98.00
2018-02-03T13:05:23.078Z,98.10
2018-02-03T13:07:49.698Z,98.10
2018-02-03T13:10:16.718Z,98.40
2018-02-03T13:12:43.039Z,98.40
2018-02-03T13:15:09.334Z,98.60
2018-02-03T13:17:36.341Z,98.10
2018-02-03T13:20:02.978Z,98.10
2018-02-03T13:22:29.259Z,97.70
2018-02-03T13:24:55.572Z,97.50
2018-02-03T13:27:21.877Z,97.40
2018-02-03T13:29:48.135Z,97.30
2018-02-03T13:32:14.418Z,97.20
2018-02-03T13:34:40.705Z,96.90
2018-02-03T13:37:07.015Z,96.90
2018-02-03T13:39:33.365Z,96.90
2018-02-03T13:42:00.475Z,97.10
2018-02-03T13:44:26.789Z,97.00
2018-02-03T13:46:53.043Z,97.10
2018-02-03T13:49:19.338Z,97.20
2018-02-03T13:51:45.650Z,97.20
2018-02-03T13:54:12.293Z,97.10
2018-02-03T13:56:39.471Z,96.80
2018-02-03T13:59:06.466Z,96.80
2018-02-03T14:01:33.508Z,96.50
2018-02-03T14:03:59.793Z,96.40
2018-02-03T14:06:26.086Z,96.40
2018-02-03T14:08:52.382Z,96.30
2018-02-03T14:11:18.679Z,96.00
2018-02-03T14:13:45.026Z,96.00
2018-02-03T14:16:12.079Z,95.90
2018-02-03T14:18:38.385Z,95.90
2018-02-03T14:21:11.663Z,96.10
2018-02-03T14:23:37.975Z,96.00
2018-02-03T14:26:10.225Z,95.70
2018-02-03T14:28:36.505Z,95.60
2018-02-03T14:31:03.557Z,95.60
2018-02-03T14:33:30.577Z,95.40
2018-02-03T14:35:56.885Z,95.60
2018-02-03T14:38:23.136Z,95.60
2018-02-03T14:40:49.398Z,95.70
2018-02-03T14:43:15.756Z,95.90
2018-02-03T14:45:42.067Z,96.10
2018-02-03T14:48:08.719Z,96.20
2018-02-03T14:50:34.976Z,96.30
2018-02-03T14:53:01.225Z,96.30
2018-02-03T14:55:27.543Z,96.40
2018-02-03T14:57:53.830Z,96.60
2018-02-03T15:00:20.881Z,96.60
2018-02-03T15:02:47.167Z,96.60
2018-02-03T15:05:14.164Z,96.90
2018-02-03T15:07:40.469Z,96.90
2018-02-03T15:10:06.780Z,97.00
2018-02-03T15:12:33.849Z,97.00
2018-02-03T15:15:00.875Z,97.00
2018-02-03T15:17:27.179Z,96.90
2018-02-03T15:19:53.538Z,96.90
2018-02-03T15:22:19.834Z,97.00
2018-02-03T15:24:46.898Z,97.10
2018-02-03T15:27:13.127Z,97.10
2018-02-03T15:29:39.496Z,97.30
2018-02-03T15:32:05.860Z,97.20
2018-02-03T15:34:32.186Z,97.60
2018-02-03T15:36:58.514Z,97.10
2018-02-03T15:39:24.807Z,96.70
2018-02-03T15:41:51.206Z,96.90
2018-02-03T15:44:17.617Z,96.90
2018-02-03T15:46:44.635Z,96.90
2018-02-03T15:49:10.992Z,96.90
2018-02-03T15:51:37.305Z,96.80
2018-02-03T15:54:03.627Z,96.80
2018-02-03T15:56:30.729Z,97.30
2018-02-03T15:58:57.024Z,97.30
2018-02-03T16:01:23.291Z,97.40
2018-02-03T16:03:49.576Z,97.60
2018-02-03T16:06:15.820Z,97.70
2018-02-03T16:08:42.096Z,97.90
2018-02-03T16:11:08.380Z,98.00
2018-02-03T16:13:34.658Z,98.00
2018-02-03T16:16:00.993Z,98.10
2018-02-03T16:18:27.355Z,98.20
2018-02-03T16:20:53.683Z,98.20
2018-02-03T16:23:20.048Z,98.20
2018-02-03T16:25:46.322Z,98.30
2018-02-03T16:28:12.645Z,98.70
2018-02-03T16:30:38.958Z,98.50
2018-02-03T16:33:05.314Z,98.40
2018-02-03T16:35:32.359Z,98.40
2018-02-03T16:37:58.682Z,98.40
2018-02-03T16:40:24.986Z,98.50
2018-02-03T16:42:51.260Z,98.50
2018-02-03T16:45:17.603Z,98.50
2018-02-03T16:47:43.886Z,98.50
2018-02-03T16:50:10.961Z,98.60
2018-02-03T16:52:37.337Z,98.60
2018-02-03T16:55:03.617Z,98.60
2018-02-03T16:57:29.990Z,98.70
2018-02-03T16:59:56.305Z,98.70
2018-02-03T17:02:22.621Z,98.60
2018-02-03T17:04:49.002Z,98.60
2018-02-03T17:07:16.064Z,98.50
2018-02-03T17:09:43.100Z,98.50
2018-02-03T17:12:09.396Z,98.50
2018-02-03T17:14:35.725Z,98.40
2018-02-03T17:17:02.056Z,98.40
2018-02-03T17:19:29.103Z,98.40
2018-02-03T17:21:55.408Z,98.40
2018-02-03T17:24:21.676Z,98.40
2018-02-03T17:26:47.973Z,98.40
2018-02-03T17:29:14.273Z,98.40
2018-02-03T17:31:41.306Z,98.40
2018-02-03T17:34:07.596Z,98.40
2018-02-03T17:36:39.992Z,98.40
2018-02-03T17:39:10.211Z,98.30
2018-02-03T17:41:37.249Z,98.20
2018-02-03T17:44:03.536Z,98.20
2018-02-03T17:46:35.879Z,98.20
2018-02-03T17:49:03.247Z,98.20
2018-02-03T17:51:30.308Z,98.20
2018-02-03T17:53:57.340Z,98.30
2018-02-03T17:56:29.680Z,98.20
2018-02-03T17:58:55.951Z,98.30
2018-02-03T18:01:22.210Z,98.30
2018-02-03T18:03:48.500Z,98.30
2018-02-03T18:06:14.846Z,98.30
2018-02-03T18:08:41.139Z,98.30
2018-02-03T18:11:07.434Z,98.20
2018-02-03T18:13:33.729Z,98.20
2018-02-03T18:16:00.054Z,98.30
2018-02-03T18:18:26.361Z,98.30
2018-02-03T18:20:52.723Z,98.40
2018-02-03T18:23:19.031Z,98.40
2018-02-03T18:25:45.347Z,98.50
2018-02-03T18:28:11.658Z,98.60
2018-02-03T18:30:38.010Z,98.60
2018-02-03T18:33:04.277Z,98.70
2018-02-03T18:35:30.575Z,98.60
2018-02-03T18:37:57.171Z,98.60
2018-02-03T18:40:24.239Z,98.50
2018-02-03T18:42:51.246Z,98.60
2018-02-03T18:45:29.747Z,98.50
2018-02-03T18:47:56.037Z,98.50
2018-02-03T18:50:22.383Z,98.50
2018-02-03T18:52:48.679Z,98.50
2018-02-03T18:55:15.087Z,98.50
2018-02-03T18:57:41.438Z,98.50
2018-02-03T19:00:07.755Z,98.50
2018-02-03T19:02:34.060Z,98.60
2018-02-03T19:05:00.413Z,98.60
2018-02-03T19:07:26.773Z,98.60
2018-02-03T19:09:53.048Z,98.70
2018-02-03T19:12:20.100Z,99.90
2018-02-03T19:14:46.415Z,99.90
2018-02-03T19:17:12.747Z,99.40
2018-02-03T19:19:39.113Z,98.50
2018-02-03T19:22:05.400Z,98.20
2018-02-03T19:24:31.716Z,98.20
2018-02-03T19:26:58.043Z,98.20
2018-02-03T19:29:24.349Z,98.20
2018-02-03T19:31:50.643Z,98.20
2018-02-03T19:34:17.706Z,98.40
2018-02-03T19:36:44.830Z,98.40
2018-02-03T19:39:11.847Z,98.30
2018-02-03T19:41:38.258Z,98.30
2018-02-03T19:44:04.649Z,98.30
2018-02-03T19:46:30.965Z,98.30
2018-02-03T19:48:58.042Z,98.40
2018-02-03T19:51:24.374Z,98.40
2018-02-03T19:53:51.498Z,98.50
2018-02-03T19:56:17.859Z,98.50
2018-02-03T19:58:44.980Z,98.80
2018-02-03T20:01:11.376Z,98.80
2018-02-03T20:03:37.767Z,99.00
2018-02-03T20:06:04.197Z,99.00
2018-02-03T20:08:30.573Z,98.70
2018-02-03T20:10:56.940Z,98.50
2018-02-03T20:13:24.030Z,98.70
2018-02-03T20:15:50.683Z,98.70
2018-02-03T20:18:17.004Z,98.80
2018-02-03T20:20:43.356Z,98.90
2018-02-03T20:23:09.684Z,99.00
2018-02-03T20:25:37.797Z,99.30
2018-02-03T20:28:04.159Z,99.30
2018-02-03T20:30:30.480Z,99.30
2018-02-03T20:32:56.930Z,99.40
2018-02-03T20:35:23.320Z,99.40
2018-02-03T20:37:49.681Z,99.40
2018-02-03T20:40:16.068Z,99.50
2018-02-03T20:42:42.365Z,99.60
2018-02-03T20:45:08.758Z,99.70
2018-02-03T20:47:35.130Z,99.70
2018-02-03T20:50:01.506Z,99.60
2018-02-03T20:52:28.629Z,99.60
2018-02-03T20:54:55.003Z,99.60
2018-02-03T20:57:21.360Z,99.60
2018-02-03T20:59:48.445Z,99.50
2018-02-03T21:02:14.766Z,99.40
2018-02-03T21:04:41.854Z,99.40
2018-02-03T21:07:08.196Z,99.40
2018-02-03T21:09:34.533Z,99.30
2018-02-03T21:12:00.888Z,99.20
2018-02-03T21:14:27.213Z,99.20
2018-02-03T21:16:53.564Z,99.20
2018-02-03T21:19:19.865Z,99.30
2018-02-03T21:21:46.202Z,99.30
2018-02-03T21:24:12.520Z,99.30
2018-02-03T21:26:38.837Z,99.30
2018-02-03T21:29:05.164Z,99.30
2018-02-03T21:31:31.439Z,99.30
2018-02-03T21:33:57.770Z,99.30
2018-02-03T21:36:24.139Z,99.30
2018-02-03T21:38:50.775Z,99.40
2018-02-03T21:41:17.097Z,99.50
2018-02-03T21:43:43.435Z,99.40
2018-02-03T21:46:09.781Z,99.40
2018-02-03T21:48:36.087Z,99.20
2018-02-03T21:51:02.438Z,99.20
2018-02-03T21:53:29.478Z,99.20
2018-02-03T21:55:55.826Z,99.20
2018-02-03T21:58:22.140Z,99.30
2018-02-03T22:00:48.446Z,99.30
2018-02-03T22:03:14.749Z,99.40
2018-02-03T22:05:41.054Z,99.30
2018-02-03T22:08:07.364Z,99.40
2018-02-03T22:10:34.405Z,99.60
2018-02-03T22:13:01.494Z,99.60
2018-02-03T22:15:27.792Z,99.90
2018-02-03T22:17:54.052Z,99.60
2018-02-03T22:20:21.106Z,99.80
2018-02-03T22:22:47.402Z,99.70
2018-02-03T22:25:13.678Z,99.80
2018-02-03T22:27:39.970Z,99.70
2018-02-03T22:30:06.286Z,99.70
2018-02-03T22:32:33.276Z,99.70
2018-02-03T22:34:59.547Z,99.70
2018-02-03T22:37:26.560Z,99.70
2018-02-03T22:39:52.815Z,99.70
2018-02-03T22:42:19.099Z,99.60
2018-02-03T22:44:45.378Z,99.60
2018-02-03T22:47:11.675Z,99.70
2018-02-03T22:49:37.937Z,99.80
2018-02-03T22:52:04.192Z,99.70
2018-02-03T22:54:31.214Z,99.70
2018-02-03T22:56:57.497Z,99.70
2018-02-03T22:59:24.535Z,99.70
2018-02-03T23:01:50.830Z,99.70
2018-02-03T23:04:17.111Z,99.70
2018-02-03T23:06:43.330Z,99.80
2018-02-03T23:09:09.582Z,99.80
2018-02-03T23:11:35.850Z,99.80
2018-02-03T23:14:02.846Z,99.90
2018-02-03T23:16:29.114Z,99.90
2018-02-03T23:18:55.335Z,99.90
2018-02-03T23:21:21.611Z,99.90
2018-02-03T23:23:47.870Z,99.80
2018-02-03T23:26:14.851Z,99.90
2018-02-03T23:28:41.109Z,99.90
2018-02-03T23:31:07.359Z,99.90
2018-02-03T23:33:33.640Z,99.90
2018-02-03T23:35:59.894Z,99.80
2018-02-03T23:38:26.874Z,99.90
2018-02-03T23:40:53.144Z,99.90
2018-02-03T23:43:19.404Z,99.90
2018-02-03T23:45:45.683Z,99.90
2018-02-03T23:48:12.677Z,99.90
2018-02-03T23:50:39.011Z,99.90
2018-02-03T23:53:05.977Z,99.90
2018-02-03T23:55:32.222Z,99.90
2018-02-03T23:57:58.634Z,99.90
